• Join FlightAware (Why Join?)
  • Login
  • US Flag 
07:40AM EST


 

Airport Tracker/Info


-or-


 

Live Flight TrackerFlight Track Log ✈ UAL115 ✈ 16-May-2013 ✈ EGLL / LHR - KEWR

Flight Track Log - Related Links

Times and Time Zones

All times are in EDT time to prevent confusion due to time zone crossing. See the UAL115 flight status page for this flight to view local times or setup timezone preferences in your user account.

Time Position Orientation Groundspeed Altitude Reporting Facility
EDT Latitude Longitude Course Direction KTS MPH feet Rate Location/Type
01:10PM 51.4670 -0.4300 90° East 174 200 1,400  Level FlightAware
01:11PM 51.4650 -0.4100 99° East 175 201 2,100 2,580 Climbing FlightAware
01:11PM 51.4529 -0.3916 136° Southeast 184 212 2,800 2,520 Climbing FlightAware ADS-B
01:11PM 51.4493 -0.3902 167° South 185 213 3,000 2,400 Climbing FlightAware ADS-B
01:11PM 51.4447 -0.3902 180° South 185 213 3,200 2,460 Climbing FlightAware ADS-B
01:11PM 51.4393 -0.3925 194° South 186 214 3,500 2,400 Climbing FlightAware ADS-B
01:11PM 51.4362 -0.3950 207° Southwest 186 214 3,600 1,800 Climbing FlightAware ADS-B
01:11PM 51.4325 -0.3990 214° Southwest 189 217 3,800 1,980 Climbing FlightAware ADS-B
01:11PM 51.4256 -0.4072 217° Southwest 200 230 4,100 1,500 Climbing FlightAware ADS-B
01:12PM 51.4140 -0.4219 218° Southwest 221 254 4,400 1,380 Climbing FlightAware ADS-B
01:12PM 51.4047 -0.4338 219° Southwest 237 273 4,700 1,320 Climbing FlightAware ADS-B
01:12PM 51.3911 -0.4510 218° Southwest 257 296 5,000 1,680 Climbing FlightAware ADS-B
01:12PM 51.3827 -0.4618 219° Southwest 264 304 5,400 2,580 Climbing FlightAware ADS-B
01:12PM 51.3762 -0.4716 223° Southwest 269 310 5,700 2,400 Climbing FlightAware ADS-B
01:13PM 51.3736 -0.4769 232° Southwest 271 312 5,800 1,980 Climbing FlightAware ADS-B
01:13PM 51.3700 -0.4865 239° Southwest 273 314 6,000 2,160 Climbing FlightAware ADS-B
01:13PM 51.3673 -0.4975 249° West 276 318 6,200 1,260 Climbing FlightAware ADS-B
01:13PM 51.3655 -0.5136 260° West 280 322 6,300 780 Climbing FlightAware ADS-B
01:13PM 51.3652 -0.5277 268° West 281 323 6,400 360 Climbing FlightAware ADS-B
01:13PM 51.3657 -0.5464 272° West 283 326 6,400  Level FlightAware ADS-B
01:13PM 51.3676 -0.5775 276° West 280 322 6,400  Level FlightAware ADS-B
01:14PM 51.3700 -0.6127 276° West 278 320 6,400  Level FlightAware ADS-B
01:14PM 51.3723 -0.6441 277° West 279 321 6,400 -240 Level FlightAware ADS-B
01:14PM 51.3745 -0.6757 276° West 280 322 6,300  Descending FlightAware ADS-B
01:14PM 51.3758 -0.6963 276° West 273 314 6,400 720 Climbing FlightAware ADS-B
01:15PM 51.3781 -0.7241 278° West 273 314 6,600 1,440 Climbing FlightAware ADS-B
01:15PM 51.3805 -0.7550 277° West 280 322 7,100 2,160 Climbing FlightAware ADS-B
01:15PM 51.3831 -0.7866 278° West 286 329 7,700 2,700 Climbing FlightAware ADS-B
01:15PM 51.3855 -0.8202 277° West 288 331 8,500 2,880 Climbing FlightAware ADS-B
01:16PM 51.3879 -0.8554 276° West 291 335 9,300 2,760 Climbing FlightAware ADS-B
01:16PM 51.3899 -0.8841 276° West 293 337 9,900 480 Climbing FlightAware ADS-B
01:16PM 51.3906 -0.9317 276° West 290 334 9,600 3,000 Descending FlightAware UK
01:16PM 51.3947 -0.9485 276° West 296 341 11,400 2,460 Climbing FlightAware ADS-B
01:17PM 51.3946 -0.9837 276° West 296 341 10,600 1,980 Descending FlightAware UK
01:17PM 51.4004 -1.0154 276° West 315 362 12,400 3,660 Climbing FlightAware ADS-B
01:17PM 51.4059 -1.0722 279° West 346 398 12,800 1,380 Climbing FlightAware ADS-B
01:17PM 51.4110 -1.1109 282° West 357 411 13,300 2,460 Climbing FlightAware ADS-B
01:18PM 51.4227 -1.1713 287° West 361 415 14,400 2,520 Climbing FlightAware ADS-B
01:18PM 51.4395 -1.2494 289° West 372 428 15,600 1,860 Climbing FlightAware ADS-B
01:19PM 51.4500 -1.2950 290° West 382 440 15,900 900 Climbing FlightAware ADS-B
01:19PM 51.4558 -1.3168 293° West 387 445 16,000 420 Climbing FlightAware ADS-B
01:19PM 51.4594 -1.3280 297° West 388 447 16,000  Level FlightAware ADS-B
01:19PM 51.4668 -1.3464 303° West 390 449 16,000 900 Level FlightAware ADS-B
01:20PM 51.5010 -1.4162 308° West 395 455 16,600 1,680 Climbing FlightAware ADS-B
01:20PM 51.5259 -1.4670 308° West 398 458 17,500 2,220 Climbing FlightAware ADS-B
01:20PM 51.5410 -1.5028 304° West 399 459 18,000 1,920 Climbing FlightAware ADS-B
01:21PM 51.5628 -1.5675 298° West 403 464 18,800 -480 Climbing FlightAware ADS-B
01:21PM 51.5708 -1.6079 298° West 382 440 17,700 1,740 Descending FlightAware UK
01:21PM 51.5861 -1.6540 298° West 413 475 19,700 1,860 Climbing FlightAware ADS-B
01:21PM 51.5979 -1.7080 298° West 388 447 18,800 1,920 Descending FlightAware UK
01:22PM 51.6105 -1.7438 298° West 422 486 20,700 3,120 Climbing FlightAware ADS-B
01:22PM 51.6343 -1.8324 293° West 445 512 21,000 -780 Climbing FlightAware ADS-B
01:22PM 51.6457 -1.8859 293° West 410 472 20,100 1,980 Descending FlightAware UK
01:23PM 51.6593 -1.9253 293° West 452 520 22,000 3,840 Climbing FlightAware ADS-B
01:23PM 51.6845 -2.0212 293° West 462 532 22,800 1,560 Climbing FlightAware ADS-B
01:24PM 51.7101 -2.1184 293° West 470 541 23,600 -300 Climbing FlightAware ADS-B
01:24PM 51.7203 -2.1695 293° West 426 490 22,600 1,680 Descending FlightAware UK
01:24PM 51.7376 -2.2229 293° West 476 548 24,500 3,480 Climbing FlightAware ADS-B
01:25PM 51.7678 -2.3389 293° West 481 554 25,500 -240 Climbing FlightAware ADS-B
01:25PM 51.7766 -2.3858 293° West 440 506 24,300 -1,260 Descending FlightAware UK
01:25PM 51.7922 -2.4461 293° West 446 513 24,800 5,040 Climbing FlightAware UK
01:25PM 51.8035 -2.4767 293° West 487 560 26,500 1,500 Climbing FlightAware ADS-B
01:26PM 51.8119 -2.5276 293° West 452 520 25,400 -780 Descending FlightAware UK
01:26PM 51.8265 -2.6105 286° West 454 522 26,000 3,780 Climbing FlightAware UK
01:26PM 51.8350 -2.6400 286° West 488 562 27,700 1,380 Climbing FlightAware
01:27PM 51.8420 -2.7177 286° West 458 527 26,700 1,320 Descending FlightAware UK
01:27PM 51.8560 -2.7910 286° West 496 571 28,600 1,140 Climbing FlightAware
01:27PM 51.8621 -2.8683 286° West 466 536 27,500 -1,140 Descending FlightAware UK
01:28PM 51.8707 -2.9341 282° West 472 543 27,900 5,700 Climbing FlightAware UK
01:28PM 51.8760 -2.9390 282° West 502 578 29,400 7,740 Climbing FlightAware
01:28PM 51.8846 -3.0045 282° West 499 574 30,100  Climbing FlightAware ADS-B
01:28PM 51.8878 -3.0643 282° West 468 539 29,400 2,040 Descending FlightAware UK
01:28PM 51.8996 -3.1176 282° West 490 564 31,200 3,240 Climbing FlightAware ADS-B
01:29PM 51.9160 -3.2480 282° West 486 559 32,200 -120 Climbing FlightAware
01:29PM 51.9207 -3.3188 282° West 466 536 31,100 -1,140 Descending FlightAware UK
01:30PM 51.9291 -3.3827 282° West 466 536 31,500 4,560 Climbing FlightAware UK
01:30PM 51.9360 -3.4000 282° West 489 563 33,000 960 Climbing FlightAware
01:30PM 51.9400 -3.4682 282° West 472 543 31,900 1,620 Descending FlightAware UK
01:30PM 51.9550 -3.5430 282° West 486 559 34,100 1,680 Climbing FlightAware
01:31PM 51.9588 -3.6159 282° West 468 539 33,100 1,500 Descending FlightAware UK
01:31PM 51.9710 -3.6730 282° West 478 550 35,000 1,320 Climbing FlightAware
01:31PM 51.9668 -3.6789 282° West 468 539 33,500 -4,500 Descending FlightAware UK
01:31PM 51.9748 -3.7420 282° West 472 543 33,500 1,860 Level FlightAware UK
01:32PM 51.9930 -3.8480 282° West 482 555 35,000  Climbing FlightAware
01:32PM 51.9960 -3.9114 282° West 474 545 33,500 -2,520 Descending FlightAware UK
01:32PM 52.0038 -3.9749 281° West 470 541 33,500 4,080 Level FlightAware UK
01:33PM 52.0110 -3.9910 281° West 480 552 35,000  Climbing FlightAware
01:33PM 52.0142 -4.0594 281° West 470 541 33,500  Descending FlightAware UK
01:33PM 52.0310 -4.1280 281° West 482 555 35,000  Climbing FlightAware
01:33PM 52.0392 -4.1814 281° West 472 543 33,500 -2,700 Descending FlightAware UK
01:34PM 52.0543 -4.2418 292° West 472 543 33,500 3,720 Level FlightAware UK
01:34PM 52.0640 -4.2650 292° West 483 556 35,000  Climbing FlightAware
01:34PM 52.0740 -4.3223 292° West 472 543 33,500 -2,520 Descending FlightAware UK
01:34PM 52.0883 -4.3830 291° West 470 541 33,500 3,300 Level FlightAware UK
01:35PM 52.0970 -4.4060 291° West 480 552 35,000  Climbing FlightAware
01:35PM 52.1108 -4.4846 291° West 468 539 33,500  Descending FlightAware UK
01:35PM 52.1260 -4.5350 291° West 480 552 35,000  Climbing FlightAware
01:35PM 52.1328 -4.5862 291° West 470 541 33,500 -2,280 Descending FlightAware UK
01:36PM 52.1505 -4.6680 289° West 468 539 33,500 2,640 Level FlightAware UK
01:36PM 52.1630 -4.7060 289° West 481 554 35,000  Climbing FlightAware
01:36PM 52.1724 -4.7703 289° West 470 541 33,500 -2,400 Descending FlightAware UK
01:37PM 52.1857 -4.8317 289° West 468 539 33,500 4,500 Level FlightAware UK
01:37PM 52.1930 -4.8440 289° West 481 554 35,000  Climbing FlightAware
01:37PM 52.1994 -4.8927 289° West 468 539 33,500 -2,700 Descending FlightAware UK
01:37PM 52.2138 -4.9534 291° West 466 536 33,500 3,060 Level FlightAware UK
01:37PM 52.2270 -4.9920 291° West 482 555 35,000  Climbing FlightAware
01:38PM 52.2374 -5.0550 291° West 466 536 33,500 -2,460 Descending FlightAware UK
01:38PM 52.2513 -5.1161 290° West 466 536 33,500 4,260 Level FlightAware UK
01:38PM 52.2580 -5.1290 290° West 482 555 35,000  Climbing FlightAware
01:38PM 52.2653 -5.1774 290° West 468 539 33,500 -2,760 Descending FlightAware UK
01:39PM 52.2791 -5.2387 290° West 470 541 33,500 3,000 Level FlightAware UK
01:39PM 52.2940 -5.2860 290° West 483 556 35,000  Climbing FlightAware
01:39PM 52.3019 -5.3402 290° West 472 543 33,500 -2,520 Descending FlightAware UK
01:39PM 52.3156 -5.4016 290° West 470 541 33,500 4,080 Level FlightAware UK
01:40PM 52.3250 -5.4240 290° West 482 555 35,000  Climbing FlightAware
01:40PM 52.3341 -5.4834 290° West 470 541 33,500 -2,400 Descending FlightAware UK
01:40PM 52.3477 -5.5448 290° West 468 539 33,500 4,500 Level FlightAware UK
01:40PM 52.3540 -5.5540 290° West 482 555 35,000  Climbing FlightAware
01:40PM 52.3613 -5.6063 290° West 470 541 33,500 -2,700 Descending FlightAware UK
01:41PM 52.3749 -5.6678 290° West 468 539 33,500 3,060 Level FlightAware UK
01:41PM 52.3880 -5.7120 290° West 482 555 35,000  Climbing FlightAware
01:41PM 52.3975 -5.7705 290° West 472 543 33,500 -2,460 Descending FlightAware UK
01:42PM 52.4110 -5.8321 290° West 472 543 33,500 4,260 Level FlightAware UK
01:42PM 52.4180 -5.8450 290° West 482 555 35,000  Climbing FlightAware
01:42PM 52.4246 -5.8937 290° West 472 543 33,500 -2,760 Descending FlightAware UK
01:42PM 52.4381 -5.9553 290° West 472 543 33,500 3,000 Level FlightAware UK
01:42PM 52.4520 -6.0040 290° West 480 552 35,000  Climbing FlightAware
01:43PM 52.4603 -6.0572 290° West 470 541 33,500 -2,520 Descending FlightAware UK
01:43PM 52.4736 -6.1187 290° West 468 539 33,500 4,080 Level FlightAware UK
01:43PM 52.4820 -6.1420 290° West 480 552 35,000  Climbing FlightAware
01:43PM 52.4913 -6.2008 290° West 470 541 33,500 -2,400 Descending FlightAware UK
01:44PM 52.5045 -6.2624 289° West 470 541 33,500 4,500 Level FlightAware UK
01:44PM 52.5120 -6.2790 289° West 480 552 35,000  Climbing FlightAware
01:44PM 52.5177 -6.3240 289° West 472 543 33,500 -2,700 Descending FlightAware UK
01:44PM 52.5309 -6.3855 289° West 470 541 33,500 3,060 Level FlightAware UK
01:44PM 52.5440 -6.4300 289° West 479 551 35,000  Climbing FlightAware
01:45PM 52.5528 -6.4882 289° West 468 539 33,500 -2,460 Descending FlightAware UK
01:45PM 52.5659 -6.5498 289° West 470 541 33,500 4,260 Level FlightAware UK
01:45PM 52.5730 -6.5670 289° West 479 551 35,000  Climbing FlightAware
01:45PM 52.5789 -6.6116 289° West 470 541 33,500 -2,760 Descending FlightAware UK
01:46PM 52.5919 -6.6733 289° West 470 541 33,500 3,600 Level FlightAware UK
01:46PM 52.6020 -6.7030 289° West 479 551 35,000  Climbing FlightAware
01:46PM 52.6093 -6.7556 289° West 470 541 33,500 -2,580 Descending FlightAware UK
01:46PM 52.6222 -6.8175 289° West 472 543 33,500 3,180 Level FlightAware UK
01:47PM 52.6340 -6.8580 289° West 478 550 35,000  Climbing FlightAware
01:47PM 52.6437 -6.9205 289° West 472 543 33,500 -2,400 Descending FlightAware UK
01:47PM 52.6566 -6.9824 289° West 474 545 33,500 4,500 Level FlightAware UK
01:47PM 52.6620 -6.9950 289° West 478 550 35,000  Climbing FlightAware
01:47PM 52.6695 -7.0441 289° West 470 541 33,500 -2,700 Descending FlightAware UK
01:48PM 52.6822 -7.1059 289° West 472 543 33,500 3,060 Level FlightAware UK
01:48PM 52.6940 -7.1470 289° West 476 548 35,000  Climbing FlightAware
01:48PM 52.7033 -7.2090 289° West 470 541 33,500 -2,520 Descending FlightAware UK
01:49PM 52.7157 -7.2701 289° West 472 543 33,500 4,260 Level FlightAware UK
01:49PM 52.7220 -7.2850 289° West 475 547 35,000  Climbing FlightAware
01:49PM 52.7325 -7.3524 289° West 472 543 33,500 -2,400 Descending FlightAware UK
01:49PM 52.7451 -7.4140 289° West 470 541 33,500 4,500 Level FlightAware UK
01:49PM 52.7490 -7.4200 289° West 475 547 35,000  Climbing FlightAware
01:50PM 52.7576 -7.4757 289° West 470 541 33,500 -2,700 Descending FlightAware UK
01:50PM 52.7701 -7.5374 289° West 470 541 33,500 3,060 Level FlightAware UK
01:50PM 52.7820 -7.5820 289° West 474 545 35,000  Climbing FlightAware
01:50PM 52.7908 -7.6402 289° West 470 541 33,500 -2,460 Descending FlightAware UK
01:51PM 52.8031 -7.7020 288° West 468 539 33,500 4,260 Level FlightAware UK
01:51PM 52.8100 -7.7200 288° West 474 545 35,000  Climbing FlightAware
01:51PM 52.8154 -7.7637 288° West 470 541 33,500 -2,760 Descending FlightAware UK
01:51PM 52.8277 -7.8255 288° West 468 539 33,500 3,000 Level FlightAware UK
01:51PM 52.8400 -7.8730 288° West 474 545 35,000  Climbing FlightAware
01:52PM 52.8481 -7.9286 288° West 470 541 33,500 -2,520 Descending FlightAware UK
01:52PM 52.8603 -7.9904 288° West 470 541 33,500 4,080 Level FlightAware UK
01:52PM 52.8670 -8.0110 288° West 474 545 35,000  Climbing FlightAware
01:52PM 52.8766 -8.0729 288° West 470 541 33,500 -2,400 Descending FlightAware UK
01:53PM 52.8888 -8.1347 288° West 472 543 33,500 4,500 Level FlightAware UK
01:53PM 52.8910 -8.1320 288° West 472 543 35,000  Climbing FlightAware
01:53PM 52.9007 -8.1966 288° West 470 541 33,500 -2,700 Descending FlightAware UK
01:53PM 52.9127 -8.2585 288° West 468 539 33,500 3,720 Level FlightAware UK
01:53PM 52.9190 -8.2800 288° West 472 543 35,000  Climbing FlightAware
01:54PM 52.9287 -8.3410 288° West 470 541 33,500 -2,520 Descending FlightAware UK
01:54PM 52.9407 -8.4030 288° West 468 539 33,500  Level FlightAware UK
01:54PM 52.9525 -8.4641 288° West 470 541 33,500 2,640 Level FlightAware UK
01:55PM 52.9660 -8.5240 288° West 469 540 35,000  Climbing FlightAware
01:55PM 52.9644 -8.5260 288° West 470 541 33,500 -4,500 Descending FlightAware UK
01:55PM 52.9762 -8.5879 288° West 470 541 33,500  Level FlightAware UK
01:55PM 52.9881 -8.6498 288° West 472 543 33,500  Level FlightAware UK
01:56PM 52.9998 -8.7119 287° West 472 543 33,500  Level FlightAware UK
01:56PM 53.0116 -8.7738 287° West 470 541 33,500 2,640 Level FlightAware UK
01:56PM 53.0220 -8.8190 287° West 469 540 35,000  Climbing FlightAware
01:56PM 53.0349 -8.8978 287° West 468 539 33,500 -2,400 Descending FlightAware UK
01:57PM 53.0465 -8.9599 287° West 470 541 33,500 4,500 Level FlightAware UK
01:57PM 53.0490 -8.9600 287° West 468 539 35,000 1,860 Climbing FlightAware
01:58PM 53.0770 -9.1150 287° West 467 537 35,000  Level FlightAware
01:58PM 53.1040 -9.2580 288° West 467 537 35,000  Level FlightAware
01:59PM 53.1380 -9.4430 287° West 465 535 35,000  Level FlightAware
02:00PM 53.1650 -9.5960 286° West 465 535 35,000  Level FlightAware
02:01PM 53.1900 -9.7370 287° West 464 534 35,000  Level FlightAware
02:01PM 53.2140 -9.8690 287° West 462 532 35,000  Level FlightAware
02:02PM 53.2410 -10.0230 286° West 461 531 35,000  Level FlightAware
02:03PM 53.2650 -10.1600 286° West 459 528 35,000  Level FlightAware
02:03PM 53.2910 -10.3110 286° West 458 527 35,000  Level FlightAware
02:04PM 53.3150 -10.4480 286° West 454 522 35,000  Level FlightAware
02:05PM 53.3390 -10.5850 286° West 454 522 35,000  Level FlightAware
02:05PM 53.3630 -10.7300 286° West 453 521 35,000  Level FlightAware
02:06PM 53.3860 -10.8660 286° West 452 520 35,000  Level FlightAware
02:07PM 53.4130 -11.0240 286° West 451 519 35,000  Level FlightAware
02:08PM 53.4350 -11.1590 285° West 451 519 35,000  Level FlightAware
02:08PM 53.4570 -11.2950 285° West 451 519 35,000  Level FlightAware
02:09PM 53.4820 -11.4500 285° West 449 517 35,000  Level FlightAware
02:10PM 53.5040 -11.5810 286° West 450 518 35,000  Level FlightAware
02:10PM 53.5280 -11.7320 285° West 450 518 35,000  Level FlightAware
02:11PM 53.5500 -11.8690 285° West 449 517 35,000  Level FlightAware
02:12PM 53.5730 -12.0190 285° West 448 516 35,000  Level FlightAware
02:12PM 53.5950 -12.1580 285° West 448 516 35,000  Level FlightAware
02:13PM 53.6130 -12.2760 284° West 447 514 35,000  Level FlightAware
02:14PM 53.6380 -12.4380 285° West 447 514 35,000  Level FlightAware
02:15PM 53.6590 -12.5740 285° West 447 514 35,000  Level FlightAware
02:15PM 53.6800 -12.7110 285° West 444 511 35,000  Level FlightAware
02:16PM 53.6990 -12.8380 284° West 444 511 35,000  Level FlightAware
02:17PM 53.7210 -12.9860 284° West 444 511 35,000  Level FlightAware
02:17PM 53.7440 -13.1550 283° West 443 510 35,000  Level FlightAware
02:18PM 53.7620 -13.2990 282° West 443 510 35,000 660 Level FlightAware
02:19PM 53.7910 -13.4620 287° West 441 507 36,000 660 Climbing FlightAware
02:20PM 53.8080 -13.6000 282° West 441 507 36,000  Level FlightAware
02:20PM 53.8300 -13.7410 285° West 441 507 36,000  Level FlightAware
02:21PM 53.8510 -13.8860 284° West 441 507 36,000  Level FlightAware
02:22PM 53.8710 -14.0280 283° West 439 505 36,000  Level FlightAware
02:23PM 53.8940 -14.2020 283° West 439 505 36,000  Level FlightAware
02:23PM 53.9100 -14.3160 283° West 439 505 36,000  Level FlightAware
02:24PM 53.9250 -14.4300 283° West 439 505 36,000  Level FlightAware
02:25PM 53.9410 -14.5450 283° West 439 505 36,000  Level FlightAware
02:25PM 53.9560 -14.6590 283° West 439 505 36,000  Level FlightAware
02:26PM 53.9760 -14.8020 283° West 439 505 36,000  Level FlightAware
02:27PM 53.9910 -14.9160 283° West 439 505 36,000  Level FlightAware
02:28PM 54.0070 -15.0310 283° West 439 505 36,000  Level FlightAware
02:28PM 54.0220 -15.1450 283° West 439 505 36,000  Level FlightAware
02:29PM 54.0420 -15.2880 283° West 439 505 36,000  Level FlightAware
02:30PM 54.0570 -15.4030 283° West 439 505 36,000  Level FlightAware
02:30PM 54.0730 -15.5180 283° West 439 505 36,000  Level FlightAware
02:31PM 54.0880 -15.6320 283° West 439 505 36,000  Level FlightAware
02:32PM 54.1080 -15.7760 283° West 439 505 36,000  Level FlightAware
02:34PM 54.1245 -16.0846 275° West  Level Estimated
02:35PM 54.1342 -16.2737 275° West  Level Estimated
02:36PM 54.1436 -16.4629 275° West  Level Estimated
02:37PM 54.1527 -16.6521 275° West  Level Estimated
02:38PM 54.1616 -16.8415 275° West  Level Estimated
02:39PM 54.1701 -17.0309 274° West  Level Estimated
02:40PM 54.1785 -17.2241 274° West  Level Estimated
02:41PM 54.1865 -17.4173 274° West  Level Estimated
02:42PM 54.1943 -17.6106 274° West  Level Estimated
02:43PM 54.2018 -17.8040 274° West  Level Estimated
02:44PM 54.2089 -17.9974 274° West  Level Estimated
02:45PM 54.2157 -18.1892 274° West  Level Estimated
02:46PM 54.2222 -18.3810 273° West  Level Estimated
02:47PM 54.2283 -18.5728 273° West  Level Estimated
02:48PM 54.2342 -18.7647 273° West  Level Estimated
02:49PM 54.2397 -18.9567 273° West  Level Estimated
02:50PM 54.2450 -19.1487 273° West  Level Estimated
02:51PM 54.2499 -19.3407 273° West  Level Estimated
02:52PM 54.2546 -19.5328 272° West  Level Estimated
02:53PM 54.2589 -19.7250 272° West  Level Estimated
02:53PM 54.0000 -20.0000 274° West 406 467 36,000  Level ETMS Enhanced Traffic Management System
02:53PM 54.0000 -20.0000 274° West 406 467 36,000  Level ETMS Enhanced Traffic Management System
02:54PM 54.2629 -19.9172 272° West  Level Estimated
02:55PM 54.2667 -20.1094 272° West  Level Estimated
02:56PM 54.2701 -20.3016 272° West  Level Estimated
02:57PM 54.2732 -20.4939 272° West  Level Estimated
02:58PM 54.2760 -20.6862 272° West  Level Estimated
02:59PM 54.0483 -21.3433 273° West 406 467 36,000  Level FlightAware Transoceanic
03:00PM 54.0540 -21.5355 273° West 406 467 36,000  Level FlightAware Transoceanic
03:01PM 54.0594 -21.7276 273° West 406 467 36,000  Level FlightAware Transoceanic
03:02PM 54.0645 -21.9199 272° West 406 467 36,000  Level FlightAware Transoceanic
03:03PM 54.0692 -22.1122 272° West 406 467 36,000  Level FlightAware Transoceanic
03:04PM 54.0737 -22.3045 272° West 406 467 36,000  Level FlightAware Transoceanic
03:05PM 54.0778 -22.4969 272° West 406 467 36,000  Level FlightAware Transoceanic
03:06PM 54.0817 -22.6893 272° West 406 467 36,000  Level FlightAware Transoceanic
03:07PM 54.0852 -22.8817 272° West 406 467 36,000  Level FlightAware Transoceanic
03:08PM 54.0884 -23.0742 272° West 406 467 36,000  Level FlightAware Transoceanic
03:09PM 54.0914 -23.2667 271° West 406 467 36,000  Level FlightAware Transoceanic
03:10PM 54.0940 -23.4592 271° West 406 467 36,000  Level FlightAware Transoceanic
03:11PM 54.0963 -23.6518 271° West 406 467 36,000  Level FlightAware Transoceanic
03:12PM 54.0983 -23.8443 271° West 406 467 36,000  Level FlightAware Transoceanic
03:13PM 54.1000 -24.0369 271° West 406 467 36,000  Level FlightAware Transoceanic
03:14PM 54.1013 -24.2295 271° West 406 467 36,000  Level FlightAware Transoceanic
03:15PM 54.1024 -24.4221 270° West 406 467 36,000  Level FlightAware Transoceanic
03:16PM 54.1032 -24.6147 270° West 406 467 36,000  Level FlightAware Transoceanic
03:17PM 54.1037 -24.8074 270° West 406 467 36,000  Level FlightAware Transoceanic
03:18PM 54.1038 -25.0000 270° West 406 467 36,000  Level FlightAware Transoceanic
03:19PM 54.1037 -25.1926 270° West 406 467 36,000  Level FlightAware Transoceanic
03:20PM 54.1032 -25.3853 270° West 406 467 36,000  Level FlightAware Transoceanic
03:21PM 54.1024 -25.5779 270° West 406 467 36,000  Level FlightAware Transoceanic
03:22PM 54.1013 -25.7705 269° West 406 467 36,000  Level FlightAware Transoceanic
03:23PM 54.1000 -25.9631 269° West 406 467 36,000  Level FlightAware Transoceanic
03:24PM 54.0983 -26.1557 269° West 406 467 36,000  Level FlightAware Transoceanic
03:25PM 54.0963 -26.3482 269° West 406 467 36,000  Level FlightAware Transoceanic
03:26PM 54.0940 -26.5408 269° West 406 467 36,000  Level FlightAware Transoceanic
03:27PM 54.0914 -26.7333 269° West 406 467 36,000  Level FlightAware Transoceanic
03:28PM 54.0884 -26.9258 268° West 406 467 36,000  Level FlightAware Transoceanic
03:29PM 54.0852 -27.1183 268° West 406 467 36,000  Level FlightAware Transoceanic
03:30PM 54.0817 -27.3107 268° West 406 467 36,000  Level FlightAware Transoceanic
03:31PM 54.0778 -27.5031 268° West 406 467 36,000  Level FlightAware Transoceanic
03:32PM 54.0737 -27.6955 268° West 406 467 36,000  Level FlightAware Transoceanic
03:33PM 54.0692 -27.8878 268° West 406 467 36,000  Level FlightAware Transoceanic
03:34PM 54.0645 -28.0801 268° West 406 467 36,000  Level FlightAware Transoceanic
03:35PM 54.0594 -28.2724 267° West 406 467 36,000  Level FlightAware Transoceanic
03:36PM 54.0540 -28.4645 267° West 406 467 36,000  Level FlightAware Transoceanic
03:37PM 54.0483 -28.6567 267° West 406 467 36,000  Level FlightAware Transoceanic
03:38PM 54.0424 -28.8488 267° West 406 467 36,000  Level FlightAware Transoceanic
03:39PM 54.0360 -29.0408 267° West 406 467 36,000  Level FlightAware Transoceanic
03:40PM 54.0294 -29.2328 267° West 406 467 36,000  Level FlightAware Transoceanic
03:41PM 54.0225 -29.4247 266° West 406 467 36,000  Level FlightAware Transoceanic
03:42PM 54.0153 -29.6165 266° West 406 467 36,000  Level FlightAware Transoceanic
03:43PM 54.0078 -29.8083 266° West 406 467 36,000  Level FlightAware Transoceanic
03:44PM 54.0000 -29.9989 266° West  Level FlightAware Approximate
03:45PM 53.9926 -30.1896 266° West  Level FlightAware Approximate
03:46PM 53.9892 -30.1881 265° West  Level FlightAware Approximate
03:46PM 54.0000 -30.0000 265° West 417 480 36,000  Level ETMS Enhanced Traffic Management System
03:47PM 53.9780 -30.3781 264° West  Level FlightAware Approximate
03:48PM 53.9665 -30.5681 264° West  Level FlightAware Approximate
03:49PM 53.9547 -30.7580 264° West  Level FlightAware Approximate
03:50PM 53.9426 -30.9477 264° West  Level FlightAware Approximate
03:51PM 53.9302 -31.1374 264° West  Level FlightAware Approximate
03:52PM 53.9010 -31.5665 263° West 417 480 36,000  Level FlightAware Transoceanic
03:53PM 53.8872 -31.7618 263° West 417 480 36,000  Level FlightAware Transoceanic
03:54PM 53.8731 -31.9569 263° West 417 480 36,000  Level FlightAware Transoceanic
03:55PM 53.8586 -32.1519 263° West 417 480 36,000  Level FlightAware Transoceanic
03:56PM 53.8439 -32.3468 263° West 417 480 36,000  Level FlightAware Transoceanic
03:57PM 53.8288 -32.5415 262° West 417 480 36,000  Level FlightAware Transoceanic
03:58PM 53.8134 -32.7361 262° West 417 480 36,000  Level FlightAware Transoceanic
03:59PM 53.7977 -32.9305 262° West 417 480 36,000  Level FlightAware Transoceanic
04:00PM 53.7817 -33.1248 262° West 417 480 36,000  Level FlightAware Transoceanic
04:01PM 53.7654 -33.3190 262° West 417 480 36,000  Level FlightAware Transoceanic
04:02PM 53.7487 -33.5130 262° West 417 480 36,000  Level FlightAware Transoceanic
04:03PM 53.7318 -33.7068 262° West 417 480 36,000  Level FlightAware Transoceanic
04:04PM 53.7145 -33.9005 261° West 417 480 36,000  Level FlightAware Transoceanic
04:05PM 53.6969 -34.0940 261° West 417 480 36,000  Level FlightAware Transoceanic
04:06PM 53.6791 -34.2874 261° West 417 480 36,000  Level FlightAware Transoceanic
04:07PM 53.6608 -34.4806 261° West 417 480 36,000  Level FlightAware Transoceanic
04:08PM 53.6423 -34.6736 261° West 417 480 36,000  Level FlightAware Transoceanic
04:09PM 53.6235 -34.8664 261° West 417 480 36,000  Level FlightAware Transoceanic
04:10PM 53.6044 -35.0591 260° West 417 480 36,000  Level FlightAware Transoceanic
04:11PM 53.5849 -35.2516 260° West 417 480 36,000  Level FlightAware Transoceanic
04:12PM 53.5652 -35.4440 260° West 417 480 36,000  Level FlightAware Transoceanic
04:13PM 53.5451 -35.6361 260° West 417 480 36,000  Level FlightAware Transoceanic
04:14PM 53.5248 -35.8280 260° West 417 480 36,000  Level FlightAware Transoceanic
04:15PM 53.5041 -36.0198 260° West 417 480 36,000  Level FlightAware Transoceanic
04:16PM 53.4831 -36.2114 259° West 417 480 36,000  Level FlightAware Transoceanic
04:17PM 53.4618 -36.4028 259° West 417 480 36,000  Level FlightAware Transoceanic
04:18PM 53.4402 -36.5940 259° West 417 480 36,000  Level FlightAware Transoceanic
04:19PM 53.4183 -36.7850 259° West 417 480 36,000  Level FlightAware Transoceanic
04:20PM 53.3961 -36.9758 259° West 417 480 36,000  Level FlightAware Transoceanic
04:21PM 53.3736 -37.1664 259° West 417 480 36,000  Level FlightAware Transoceanic
04:22PM 53.3508 -37.3568 259° West 417 480 36,000  Level FlightAware Transoceanic
04:23PM 53.3277 -37.5471 258° West 417 480 36,000  Level FlightAware Transoceanic
04:24PM 53.3043 -37.7370 258° West 417 480 36,000  Level FlightAware Transoceanic
04:25PM 53.2806 -37.9268 258° West 417 480 36,000  Level FlightAware Transoceanic
04:26PM 53.2566 -38.1164 258° West 417 480 36,000  Level FlightAware Transoceanic
04:27PM 53.2323 -38.3058 258° West 417 480 36,000  Level FlightAware Transoceanic
04:28PM 53.2076 -38.4949 258° West 417 480 36,000  Level FlightAware Transoceanic
04:29PM 53.1827 -38.6838 258° West 417 480 36,000  Level FlightAware Transoceanic
04:30PM 53.1575 -38.8725 257° West 417 480 36,000  Level FlightAware Transoceanic
04:31PM 53.1320 -39.0610 257° West 417 480 36,000  Level FlightAware Transoceanic
04:32PM 53.1062 -39.2493 257° West 417 480 36,000  Level FlightAware Transoceanic
04:33PM 53.0801 -39.4373 257° West 417 480 36,000  Level FlightAware Transoceanic
04:34PM 53.0537 -39.6251 257° West 417 480 36,000  Level FlightAware Transoceanic
04:35PM 53.0270 -39.8127 257° West 417 480 36,000 240 Level FlightAware Transoceanic
04:36PM 53.0008 -39.9942 257° West  Level FlightAware Approximate
04:37PM 52.9743 -40.1755 256° West  Level FlightAware Approximate
04:38PM 52.9901 -40.1740 265° West  Level FlightAware Approximate
04:38PM 53.0000 -40.0000 265° West 418 481 37,000  Level ETMS Enhanced Traffic Management System
04:39PM 52.9792 -40.3597 265° West  Level FlightAware Approximate
04:40PM 52.9681 -40.5453 264° West  Level FlightAware Approximate
04:41PM 52.9566 -40.7308 264° West  Level FlightAware Approximate
04:42PM 52.9449 -40.9162 264° West  Level FlightAware Approximate
04:43PM 52.9329 -41.1015 264° West  Level FlightAware Approximate
04:44PM 52.9167 -41.3444 264° West 418 481 37,000  Level FlightAware Transoceanic
04:45PM 52.9036 -41.5360 263° West 418 481 37,000  Level FlightAware Transoceanic
04:46PM 52.8901 -41.7275 263° West 418 481 37,000  Level FlightAware Transoceanic
04:47PM 52.8764 -41.9189 263° West 418 481 37,000  Level FlightAware Transoceanic
04:48PM 52.8623 -42.1101 263° West 418 481 37,000  Level FlightAware Transoceanic
04:49PM 52.8480 -42.3013 263° West 418 481 37,000  Level FlightAware Transoceanic
04:50PM 52.8333 -42.4922 263° West 418 481 37,000  Level FlightAware Transoceanic
04:51PM 52.8183 -42.6831 263° West 418 481 37,000  Level FlightAware Transoceanic
04:52PM 52.8031 -42.8739 262° West 418 481 37,000  Level FlightAware Transoceanic
04:53PM 52.7875 -43.0645 262° West 418 481 37,000  Level FlightAware Transoceanic
04:54PM 52.7716 -43.2549 262° West 418 481 37,000  Level FlightAware Transoceanic
04:55PM 52.7554 -43.4453 262° West 418 481 37,000  Level FlightAware Transoceanic
04:56PM 52.7389 -43.6354 262° West 418 481 37,000  Level FlightAware Transoceanic
04:57PM 52.7221 -43.8255 262° West 418 481 37,000  Level FlightAware Transoceanic
04:58PM 52.7049 -44.0154 261° West 418 481 37,000  Level FlightAware Transoceanic
04:59PM 52.6875 -44.2051 261° West 418 481 37,000  Level FlightAware Transoceanic
05:00PM 52.6698 -44.3947 261° West 418 481 37,000  Level FlightAware Transoceanic
05:01PM 52.6518 -44.5841 261° West 418 481 37,000  Level FlightAware Transoceanic
05:02PM 52.6335 -44.7734 261° West 418 481 37,000  Level FlightAware Transoceanic
05:03PM 52.6149 -44.9625 261° West 418 481 37,000  Level FlightAware Transoceanic
05:04PM 52.5959 -45.1515 261° West 418 481 37,000  Level FlightAware Transoceanic
05:05PM 52.5767 -45.3402 260° West 418 481 37,000  Level FlightAware Transoceanic
05:06PM 52.5572 -45.5289 260° West 418 481 37,000  Level FlightAware Transoceanic
05:07PM 52.5374 -45.7173 260° West 418 481 37,000  Level FlightAware Transoceanic
05:08PM 52.5173 -45.9056 260° West 418 481 37,000  Level FlightAware Transoceanic
05:09PM 52.4968 -46.0937 260° West 418 481 37,000  Level FlightAware Transoceanic
05:10PM 52.4761 -46.2817 260° West 418 481 37,000  Level FlightAware Transoceanic
05:11PM 52.4551 -46.4694 260° West 418 481 37,000  Level FlightAware Transoceanic
05:12PM 52.4338 -46.6570 259° West 418 481 37,000  Level FlightAware Transoceanic
05:13PM 52.4122 -46.8444 259° West 418 481 37,000  Level FlightAware Transoceanic
05:14PM 52.3903 -47.0316 259° West 418 481 37,000  Level FlightAware Transoceanic
05:15PM 52.3681 -47.2186 259° West 418 481 37,000  Level FlightAware Transoceanic
05:16PM 52.3456 -47.4054 259° West 418 481 37,000  Level FlightAware Transoceanic
05:17PM 52.3228 -47.5920 259° West 418 481 37,000  Level FlightAware Transoceanic
05:18PM 52.2997 -47.7785 258° West 418 481 37,000  Level FlightAware Transoceanic
05:19PM 52.2763 -47.9647 258° West 418 481 37,000  Level FlightAware Transoceanic
05:20PM 52.2527 -48.1508 258° West 418 481 37,000  Level FlightAware Transoceanic
05:21PM 52.2287 -48.3367 258° West 418 481 37,000  Level FlightAware Transoceanic
05:22PM 52.2044 -48.5223 258° West 418 481 37,000  Level FlightAware Transoceanic
05:23PM 52.1799 -48.7077 258° West 418 481 37,000  Level FlightAware Transoceanic
05:24PM 52.1551 -48.8930 258° West 418 481 37,000  Level FlightAware Transoceanic
05:25PM 52.1300 -49.0780 257° West 418 481 37,000  Level FlightAware Transoceanic
05:26PM 52.1045 -49.2628 257° West 418 481 37,000  Level FlightAware Transoceanic
05:27PM 52.0788 -49.4475 257° West 418 481 37,000  Level FlightAware Transoceanic
05:28PM 52.0528 -49.6319 257° West 418 481 37,000  Level FlightAware Transoceanic
05:29PM 52.0266 -49.8160 257° West 418 481 37,000  Level FlightAware Transoceanic
05:30PM 52.0009 -49.9937 257° West  Level FlightAware Approximate
05:31PM 51.9751 -50.1712 257° West  Level FlightAware Approximate
05:32PM 51.9642 -50.1592 250° West  Level FlightAware Approximate
05:32PM 52.0000 -50.0000 250° West 403 464 37,000  Level ETMS Enhanced Traffic Management System
05:32PM 52.0000 -50.0000 250° West 403 464 37,000  Level ETMS Enhanced Traffic Management System
05:33PM 51.9255 -50.3302 250° West  Level FlightAware Approximate
05:34PM 51.8866 -50.5010 250° West  Level FlightAware Approximate
05:35PM 51.8473 -50.6715 250° West  Level FlightAware Approximate
05:35PM 51.8333 -50.6833 249° West 400 460 37,000  Level Gander Center
05:36PM 51.8079 -50.8416 249° West  Level FlightAware Approximate
05:36PM 51.8000 -50.8500 252° West 400 460 37,000  Level Gander Center
05:37PM 51.7682 -51.0115 249° West  Level FlightAware Approximate
05:37PM 51.7833 -51.0500 262° West 410 472 37,000  Level Gander Center
05:38PM 51.7305 -51.1905 249° West 403 464 37,000  Level FlightAware Transoceanic
05:38PM 51.7667 -51.1833 259° West 420 483 37,000  Level Gander Center
05:39PM 51.6911 -51.3594 249° West 403 464 37,000 600 Level FlightAware Transoceanic
05:39PM 51.7500 -51.4000 263° West 410 472 37,600  Climbing Gander Center
05:40PM 51.6514 -51.5281 249° West 403 464 37,000 360 Descending FlightAware Transoceanic
05:40PM 51.7167 -51.5667 252° West 420 483 38,000 480 Climbing Gander Center
05:41PM 51.6833 -51.7500 254° West 420 483 38,000  Level Gander Center
05:42PM 51.6667 -51.9333 262° West 420 483 38,000  Level Gander Center
05:43PM 51.6333 -52.1333 255° West 410 472 38,000  Level Gander Center
05:44PM 51.6333 -52.2167 270° West 420 483 38,000  Level Gander Center
05:45PM 51.6000 -52.3833 252° West 410 472 38,000  Level Gander Center
05:45PM 51.6000 -52.4667 270° West 410 472 38,000  Level Gander Center
05:46PM 51.5667 -52.6667 255° West 420 483 38,000  Level Gander Center
05:47PM 51.5333 -52.8500 254° West 420 483 38,000  Level Gander Center
05:48PM 51.5167 -53.0500 262° West 420 483 38,000  Level Gander Center
05:49PM 51.5000 -53.2167 261° West 430 495 38,000  Level Gander Center
05:50PM 51.4667 -53.4000 254° West 430 495 38,000  Level Gander Center
05:51PM 51.4333 -53.6000 255° West 430 495 38,000  Level Gander Center
05:52PM 51.4000 -53.7667 252° West 430 495 38,000  Level Gander Center
05:53PM 51.3833 -53.8833 257° West 430 495 38,000  Level Gander Center
05:54PM 51.3667 -54.0500 261° West 430 495 38,000  Level Gander Center
05:55PM 51.3333 -54.2333 254° West 430 495 38,000  Level Gander Center
05:56PM 51.3000 -54.4333 255° West 430 495 38,000  Level Gander Center
05:56PM 51.3000 -54.5167 270° West 430 495 38,000  Level Gander Center
05:57PM 51.2667 -54.7000 254° West 430 495 38,000  Level Gander Center
05:58PM 51.2333 -54.9000 255° West 420 483 38,000  Level Gander Center
05:59PM 51.2167 -54.9833 252° West 420 483 38,000  Level Gander Center
06:00PM 51.2000 -55.1667 262° West 430 495 38,000  Level Gander Center
06:01PM 51.1500 -55.3333 244° Southwest 420 483 38,000  Level Gander Center
06:01PM 51.1500 -55.4167 270° West 430 495 38,000  Level Gander Center
06:02PM 51.1167 -55.6000 254° West 430 495 38,000  Level Gander Center
06:03PM 51.1000 -55.8000 263° West 430 495 38,000  Level Gander Center
06:04PM 51.0500 -55.9833 247° West 430 495 38,000  Level Gander Center
06:05PM 51.0333 -56.1500 261° West 430 495 38,000  Level Gander Center
06:06PM 51.0000 -56.3333 254° West 430 495 38,000  Level Gander Center
06:07PM 50.9667 -56.4500 246° West 440 506 38,000  Level Gander Center
06:08PM 50.9500 -56.6167 261° West 430 495 38,000  Level Gander Center
06:08PM 50.9333 -56.7167 255° West 430 495 38,000  Level Gander Center
06:09PM 50.8833 -56.9000 247° West 440 506 38,000  Level Gander Center
06:10PM 50.8667 -57.1000 263° West 440 506 38,000  Level Gander Center
06:11PM 50.8167 -57.2833 247° West 450 518 38,000  Level Gander Center
06:12PM 50.8000 -57.4500 261° West 440 506 38,000  Level Gander Center
06:13PM 50.7833 -57.5500 255° West 430 495 38,000  Level Gander Center
06:13PM 50.7667 -57.6333 252° West 440 506 38,000  Level Gander Center
06:14PM 50.7167 -57.8167 247° West 430 495 38,000  Level Gander Center
06:15PM 50.7000 -58.0167 263° West 430 495 38,000  Level Gander Center
06:16PM 50.6500 -58.1667 242° Southwest 420 483 38,000  Level Gander Center
06:17PM 50.6167 -58.3500 254° West 430 495 38,000  Level Gander Center
06:18PM 50.5833 -58.5500 255° West 430 495 38,000  Level Gander Center
06:19PM 50.5667 -58.7000 260° West 420 483 38,000  Level Gander Center
06:20PM 50.5167 -58.8833 247° West 430 495 38,000  Level Gander Center
06:21PM 50.4833 -59.0667 254° West 430 495 38,000  Level Gander Center
06:23PM 50.4333 -59.3000 251° West 420 483 38,000  Level Moncton Center
06:24PM 50.4000 -59.4667 253° West 420 483 38,000  Level Moncton Center
06:25PM 50.3667 -59.6500 254° West 410 472 38,000  Level Moncton Center
06:26PM 50.3167 -59.8000 242° Southwest 420 483 38,000  Level Moncton Center
06:27PM 50.2833 -60.0000 255° West 420 483 38,000  Level Moncton Center
06:28PM 50.2500 -60.1833 254° West 420 483 38,000  Level Moncton Center
06:29PM 50.2000 -60.3333 243° Southwest 420 483 38,000  Level Moncton Center
06:30PM 50.1500 -60.5000 245° Southwest 420 483 38,000  Level Moncton Center
06:31PM 50.0833 -60.6333 232° Southwest 420 483 38,000  Level Moncton Center
06:32PM 50.0167 -60.8000 238° Southwest 420 483 38,000  Level Moncton Center
06:33PM 49.9667 -60.9667 245° Southwest 420 483 38,000  Level Moncton Center
06:34PM 49.9000 -61.1167 235° Southwest 420 483 38,000  Level Moncton Center
06:35PM 49.8333 -61.2500 232° Southwest 430 495 38,000  Level Moncton Center
06:36PM 49.7500 -61.4167 232° Southwest 430 495 38,000  Level Moncton Center
06:37PM 49.6833 -61.5833 238° Southwest 430 495 38,000  Level Moncton Center
06:38PM 49.6333 -61.7333 243° Southwest 440 506 38,000  Level Moncton Center
06:39PM 49.5667 -61.9000 238° Southwest 430 495 38,000  Level Moncton Center
06:40PM 49.5000 -62.0333 232° Southwest 430 495 38,000  Level Moncton Center
06:41PM 49.4333 -62.1833 236° Southwest 430 495 38,000  Level Moncton Center
06:42PM 49.3500 -62.3333 230° Southwest 430 495 38,000  Level Moncton Center
06:43PM 49.2833 -62.5000 239° Southwest 430 495 38,000  Level Moncton Center
06:44PM 49.2333 -62.6500 243° Southwest 430 495 38,000  Level Moncton Center
06:45PM 49.1667 -62.8167 239° Southwest 430 495 38,000  Level Moncton Center
06:46PM 49.0833 -62.9667 230° Southwest 430 495 38,000  Level Moncton Center
06:47PM 49.0167 -63.1000 233° Southwest 430 495 38,000  Level Moncton Center
06:48PM 48.9500 -63.2500 236° Southwest 430 495 38,000  Level Moncton Center
06:49PM 48.8833 -63.4000 236° Southwest 430 495 38,000  Level Moncton Center
06:50PM 48.8167 -63.5333 233° Southwest 430 495 38,000  Level Moncton Center
06:51PM 48.7500 -63.6833 236° Southwest 430 495 38,000  Level Moncton Center
06:52PM 48.6833 -63.8333 236° Southwest 430 495 38,000  Level Moncton Center
06:53PM 48.6167 -64.0000 239° Southwest 420 483 38,000  Level Moncton Center
06:54PM 48.5333 -64.1500 230° Southwest 430 495 38,000  Level Moncton Center
06:55PM 48.4667 -64.2667 229° Southwest 430 495 38,000  Level Moncton Center
06:56PM 48.4000 -64.4167 236° Southwest 430 495 38,000  Level Moncton Center
06:57PM 48.3333 -64.5667 236° Southwest 430 495 38,000  Level Moncton Center
06:58PM 48.2500 -64.7167 230° Southwest 430 495 38,000  Level Moncton Center
06:59PM 48.1833 -64.8667 236° Southwest 430 495 38,000 360 Level Moncton Center
07:00PM 48.1167 -65.0167 236° Southwest 430 495 38,800 900 Climbing Moncton Center
07:01PM 48.0500 -65.1500 233° Southwest 430 495 39,800 600 Climbing Moncton Center
07:02PM 47.9833 -65.3000 236° Southwest 430 495 40,000 60 Climbing Moncton Center
07:03PM 47.9167 -65.4500 236° Southwest 430 495 40,000  Level Moncton Center
07:04PM 47.8500 -65.5667 230° Southwest 430 495 40,000  Level Moncton Center
07:05PM 47.7667 -65.7500 236° Southwest 430 495 40,000  Level Moncton Center
07:06PM 47.6833 -65.8667 223° Southwest 430 495 40,000  Level Moncton Center
07:07PM 47.6167 -66.0167 237° Southwest 440 506 40,000  Level Moncton Center
07:08PM 47.5500 -66.1500 234° Southwest 430 495 40,000  Level Moncton Center
07:09PM 47.4667 -66.3000 231° Southwest 440 506 40,000  Level Moncton Center
07:10PM 47.4000 -66.4500 237° Southwest 440 506 40,000  Level Moncton Center
07:11PM 47.3333 -66.6000 237° Southwest 440 506 40,000  Level Moncton Center
07:12PM 47.2500 -66.7333 227° Southwest 440 506 40,000  Level Moncton Center
07:13PM 47.1833 -66.8667 234° Southwest 440 506 40,000  Level Moncton Center
07:14PM 47.1000 -67.0333 234° Southwest 440 506 40,000  Level Moncton Center
07:19PM 46.6910 -67.8210 234° Southwest 443 510 40,000  Level FlightAware
07:20PM 46.6430 -67.9090 232° Southwest 442 509 40,000  Level FlightAware
07:21PM 46.5700 -68.0440 232° Southwest 440 506 40,000  Level FlightAware
07:22PM 46.5150 -68.1460 232° Southwest 439 505 40,000  Level FlightAware
07:22PM 46.4580 -68.2500 232° Southwest 438 504 40,000  Level FlightAware
07:23PM 46.4080 -68.3410 231° Southwest 438 504 40,000  Level FlightAware
07:24PM 46.3510 -68.4450 232° Southwest 437 503 40,000  Level FlightAware
07:25PM 46.3010 -68.5350 231° Southwest 435 501 40,000  Level FlightAware
07:25PM 46.2500 -68.6260 231° Southwest 434 499 40,000  Level FlightAware
07:26PM 46.2000 -68.7160 231° Southwest 437 503 40,000  Level FlightAware
07:27PM 46.1440 -68.8170 231° Southwest 435 501 40,000  Level FlightAware
07:27PM 46.0940 -68.9060 231° Southwest 431 496 40,000  Level FlightAware
07:28PM 46.0370 -69.0060 231° Southwest 430 495 40,000  Level FlightAware
07:29PM 45.9870 -69.0950 231° Southwest 429 494 40,000  Level FlightAware
07:29PM 45.9310 -69.1930 231° Southwest 426 490 40,000  Level FlightAware
07:30PM 45.8820 -69.2800 231° Southwest 425 489 40,000  Level FlightAware
07:31PM 45.8330 -69.3670 231° Southwest 426 490 40,000  Level FlightAware
07:32PM 45.7770 -69.4640 230° Southwest 425 489 40,000  Level FlightAware
07:32PM 45.7270 -69.5510 231° Southwest 425 489 40,000  Level FlightAware
07:33PM 45.6710 -69.6490 231° Southwest 426 490 40,000  Level FlightAware
07:34PM 45.6210 -69.7350 230° Southwest 425 489 40,000  Level FlightAware
07:34PM 45.5710 -69.8210 230° Southwest 425 489 40,000  Level FlightAware
07:35PM 45.5150 -69.9170 230° Southwest 428 493 40,000  Level FlightAware
07:36PM 45.4640 -70.0050 230° Southwest 428 493 40,000  Level FlightAware
07:36PM 45.4140 -70.0890 230° Southwest 426 490 40,000  Level FlightAware
07:37PM 45.3580 -70.1850 230° Southwest 425 489 40,000  Level FlightAware
07:38PM 45.3070 -70.2710 230° Southwest 425 489 40,000  Level FlightAware
07:39PM 45.2510 -70.3660 230° Southwest 427 491 40,000  Level FlightAware
07:39PM 45.2000 -70.4510 230° Southwest 423 487 40,000  Level FlightAware
07:40PM 45.1500 -70.5350 230° Southwest 423 487 40,000  Level FlightAware
07:41PM 45.0930 -70.6310 230° Southwest 425 489 40,000  Level FlightAware
07:41PM 45.0430 -70.7140 230° Southwest 423 487 40,000  Level FlightAware
07:42PM 44.9860 -70.8090 230° Southwest 424 488 40,000  Level FlightAware
07:43PM 44.9350 -70.8930 229° Southwest 425 489 40,000  Level FlightAware
07:43PM 44.8850 -70.9770 230° Southwest 424 488 40,000  Level FlightAware
07:44PM 44.8280 -71.0700 229° Southwest 422 486 40,000  Level FlightAware
07:45PM 44.7800 -71.1490 229° Southwest 423 487 40,000  Level FlightAware
07:46PM 44.7240 -71.2400 229° Southwest 422 486 40,000  Level FlightAware
07:46PM 44.6700 -71.3280 229° Southwest 417 480 40,000  Level FlightAware
07:47PM 44.6200 -71.4100 229° Southwest 417 480 40,000  Level FlightAware
07:48PM 44.5620 -71.5020 229° Southwest 419 482 40,000  Level FlightAware
07:48PM 44.5120 -71.5840 229° Southwest 420 483 40,000  Level FlightAware
07:49PM 44.4560 -71.6740 229° Southwest 420 483 40,000  Level FlightAware
07:50PM 44.4050 -71.7540 228° Southwest 420 483 40,000  Level FlightAware
07:50PM 44.3480 -71.8460 229° Southwest 418 481 40,000  Level FlightAware
07:51PM 44.2960 -71.9300 229° Southwest 417 480 40,000  Level FlightAware
07:52PM 44.2440 -72.0110 228° Southwest 416 479 40,000  Level FlightAware
07:53PM 44.1880 -72.1000 229° Southwest 418 481 40,000  Level FlightAware
07:53PM 44.1360 -72.1810 228° Southwest 417 480 40,000  Level FlightAware
07:54PM 44.0780 -72.2730 229° Southwest 416 479 40,000  Level FlightAware
07:55PM 44.0270 -72.3530 228° Southwest 417 480 40,000 -120 Level FlightAware
07:55PM 43.9760 -72.4330 228° Southwest 411 473 39,900 -720 Descending FlightAware
07:56PM 43.9200 -72.5190 228° Southwest 408 470 39,000 -1,200 Descending FlightAware
07:57PM 43.8700 -72.5970 228° Southwest 408 470 38,200 -1,020 Descending FlightAware
07:57PM 43.8120 -72.6860 228° Southwest 397 457 37,600 -1,140 Descending FlightAware
07:58PM 43.7630 -72.7620 228° Southwest 405 466 36,600 -1,080 Descending FlightAware
07:59PM 43.7090 -72.8460 228° Southwest 397 457 36,100 -660 Descending FlightAware
08:00PM 43.6590 -72.9210 227° Southwest 385 443 35,700 -840 Descending FlightAware
08:00PM 43.6130 -72.9920 228° Southwest 383 441 35,000 -1,080 Descending FlightAware
08:01PM 43.5620 -73.0700 228° Southwest 381 438 34,200 -1,560 Descending FlightAware
08:02PM 43.5110 -73.1470 228° Southwest 394 453 32,800 -1,680 Descending FlightAware
08:02PM 43.4550 -73.2300 227° Southwest 396 456 31,900 -1,560 Descending FlightAware
08:03PM 43.3970 -73.2970 220° Southwest 417 480 30,600 -1,020 Descending FlightAware
08:04PM 43.3420 -73.3470 213° Southwest 417 480 30,600  Level FlightAware
08:04PM 43.2880 -73.3980 215° Southwest 417 480 30,600  Level FlightAware
08:05PM 43.2340 -73.4480 214° Southwest 417 480 30,600  Level FlightAware
08:06PM 43.1660 -73.5110 214° Southwest 417 480 30,600  Level FlightAware
08:07PM 43.1110 -73.5610 214° Southwest 417 480 30,600  Level FlightAware
08:07PM 43.0570 -73.6110 214° Southwest 417 480 30,600  Level FlightAware
08:08PM 43.0020 -73.6620 214° Southwest 417 480 30,600  Level FlightAware
08:09PM 42.9480 -73.7120 214° Southwest 417 480 30,600  Level FlightAware
08:09PM 42.8800 -73.7740 214° Southwest 417 480 30,600  Level FlightAware
08:10PM 42.8390 -73.8120 214° Southwest 417 480 30,600  Level FlightAware
08:11PM 42.7710 -73.8740 214° Southwest 417 480 30,600  Level FlightAware
08:11PM 42.7170 -73.9240 214° Southwest 417 480 30,600  Level FlightAware
08:12PM 42.6620 -73.9740 214° Southwest 417 480 30,600  Level FlightAware
08:13PM 42.6080 -74.0240 214° Southwest 417 480 30,600 -10,380 Level FlightAware
08:13PM 42.3042 -74.0008 214° Southwest 417 480 16,100 -8,400 Descending Boston Center
08:14PM 42.1972 -74.0458 197° South 417 480 16,100 -720 Level Boston Center
08:20PM 41.6710 -74.2760 197° South 295 339 11,200 -900 Descending FlightAware
08:21PM 41.6170 -74.2990 198° South 280 322 10,300 -660 Descending FlightAware
08:22PM 41.5690 -74.3190 197° South 280 322 10,300  Level FlightAware
08:23PM 41.5270 -74.3360 197° South 280 322 10,300 -780 Level FlightAware
08:28PM 41.1319 -74.3460 181° South 278 320 5,900 -840 Descending FlightAware ADS-B
08:28PM 41.1158 -74.3296 142° Southeast 268 308 5,800 -600 Descending FlightAware ADS-B
08:28PM 41.1007 -74.3141 142° Southeast 259 298 5,600 -720 Descending FlightAware ADS-B
08:29PM 41.0832 -74.2959 142° Southeast 253 291 5,400 -720 Descending FlightAware ADS-B
08:29PM 41.0695 -74.2817 142° Southeast 249 287 5,200 -420 Descending FlightAware ADS-B
08:29PM 41.0557 -74.2676 142° Southeast 245 282 5,200  Level FlightAware ADS-B
08:29PM 41.0415 -74.2527 142° Southeast 231 266 5,200  Level FlightAware ADS-B
08:30PM 41.0229 -74.2336 142° Southeast 219 252 5,200  Level FlightAware ADS-B
08:30PM 41.0078 -74.2181 142° Southeast 218 251 5,200  Level FlightAware ADS-B
08:30PM 40.9951 -74.2054 143° Southeast 218 251 5,200  Level FlightAware ADS-B
08:31PM 40.9824 -74.1926 143° Southeast 218 251 5,200  Level FlightAware ADS-B
08:31PM 40.9704 -74.1805 143° Southeast 218 251 5,200  Level FlightAware ADS-B
08:31PM 40.9584 -74.1684 143° Southeast 217 250 5,200 -240 Level FlightAware ADS-B
08:31PM 40.9457 -74.1555 143° Southeast 213 245 5,100 -720 Descending FlightAware ADS-B
08:32PM 40.9308 -74.1404 143° Southeast 213 245 4,800 -1,080 Descending FlightAware ADS-B
08:32PM 40.9181 -74.1277 143° Southeast 212 244 4,500 -1,140 Descending FlightAware ADS-B
08:32PM 40.9061 -74.1153 142° Southeast 210 242 4,200 -1,020 Descending FlightAware ADS-B
08:33PM 40.8944 -74.1037 143° Southeast 208 239 4,000 -1,020 Descending FlightAware ADS-B
08:33PM 40.8822 -74.0913 142° Southeast 208 239 3,700 -1,140 Descending FlightAware ADS-B
08:33PM 40.8695 -74.0784 142° Southeast 207 238 3,400 -1,080 Descending FlightAware ADS-B
08:33PM 40.8602 -74.0692 143° Southeast 201 231 3,200 -600 Descending FlightAware ADS-B
08:33PM 40.8537 -74.0647 152° Southeast 195 224 3,200  Level FlightAware ADS-B
08:33PM 40.8501 -74.0637 168° South 191 220 3,200  Level FlightAware ADS-B
08:34PM 40.8467 -74.0637 180° South 189 217 3,200  Level FlightAware ADS-B
08:34PM 40.8432 -74.0645 190° South 186 214 3,200  Level FlightAware ADS-B
08:34PM 40.8389 -74.0662 197° South 186 214 3,200 -300 Level FlightAware ADS-B
08:34PM 40.8268 -74.0723 201° Southwest 186 214 3,100 -540 Descending FlightAware ADS-B
08:34PM 40.8204 -74.0757 202° Southwest 182 209 3,000 -1,020 Descending FlightAware ADS-B
08:34PM 40.8127 -74.0803 204° Southwest 178 205 2,800 -1,200 Descending FlightAware ADS-B
08:35PM 40.7948 -74.0918 206° Southwest 166 191 2,300 -1,080 Descending FlightAware ADS-B
08:35PM 40.7881 -74.0965 208° Southwest 158 182 2,200 -660 Descending FlightAware ADS-B
08:35PM 40.7768 -74.1038 206° Southwest 145 167 2,000 -780 Descending FlightAware ADS-B
08:35PM 40.7689 -74.1092 207° Southwest 140 161 1,800 -840 Descending FlightAware ADS-B
08:36PM 40.7562 -74.1172 206° Southwest 135 155 1,500 -840 Descending FlightAware ADS-B
08:36PM 40.7471 -74.1233 207° Southwest 132 152 1,300 -720 Descending FlightAware ADS-B
08:36PM 40.7371 -74.1296 206° Southwest 131 151 1,100 -420 Descending FlightAware ADS-B
08:37PM 40.7170 -74.1420 205° Southwest 129 148 900 -300 Descending FlightAware